Time;durP1;ratioP1;P1;durP2;ratioP2;P2;SDS_P1;SDS_P2;PMS_P1;PMS_P2;Temp;Humidity;BMP_temperature;BMP_pressure;BME280_temperature;BME280_humidity;BME280_pressure;Samples;Min_cycle;Max_cycle;Signal;HPM_P1;HPM_P2
2022/11/07 00:02:39;;;;;;;0.35;0.25;;;;;;;9.98;100.00;100932.78;10455511;28;20043;-79
2022/11/07 00:07:40;;;;;;;23.85;1.35;;;;;;;10.07;100.00;100935.63;10453945;28;20044;-79
2022/11/07 00:12:42;;;;;;;0.15;0.10;;;;;;;10.03;100.00;100944.09;10456762;28;20439;-79
2022/11/07 00:17:43;;;;;;;0.57;0.57;;;;;;;9.96;100.00;100939.59;10445313;28;20091;-78
2022/11/07 00:22:45;;;;;;;0.35;0.28;;;;;;;10.13;100.00;100946.09;10440922;28;20049;-80
2022/11/07 00:27:46;;;;;;;0.17;0.17;;;;;;;9.91;100.00;100948.88;10473075;28;20047;-80
2022/11/07 00:32:48;;;;;;;4.28;0.20;;;;;;;9.93;100.00;100942.09;10463996;28;20072;-79
2022/11/07 00:37:49;;;;;;;0.80;0.35;;;;;;;10.04;100.00;100953.56;10446687;28;20041;-80
2022/11/07 00:42:51;;;;;;;1.00;0.85;;;;;;;9.94;100.00;100974.72;10454067;28;20043;-79
2022/11/07 00:47:53;;;;;;;0.20;0.20;;;;;;;9.90;100.00;100970.28;10443514;28;20076;-79
2022/11/07 00:52:56;;;;;;;0.73;0.47;;;;;;;10.00;100.00;100970.63;10444862;28;20487;-80
2022/11/07 00:57:58;;;;;;;0.00;0.00;;;;;;;9.96;100.00;100983.34;10463216;28;20059;-79
2022/11/07 01:08:19;;;;;;;0.10;0.10;;;;;;;10.11;100.00;100991.50;10464268;28;20574;-79
2022/11/07 01:13:21;;;;;;;0.10;0.10;;;;;;;10.18;100.00;100990.00;10457229;28;20083;-79
2022/11/07 01:18:22;;;;;;;0.70;0.30;;;;;;;10.23;100.00;100987.56;10471585;28;20075;-78
2022/11/07 01:23:24;;;;;;;0.50;0.50;;;;;;;10.26;100.00;100988.53;10476932;28;20037;-79
2022/11/07 01:28:26;;;;;;;0.10;0.10;;;;;;;10.14;100.00;100990.72;10457812;28;20148;-81
2022/11/07 01:33:27;;;;;;;0.52;0.28;;;;;;;10.21;100.00;100995.22;10455815;28;20049;-80
2022/11/07 01:38:29;;;;;;;0.10;0.10;;;;;;;9.95;100.00;101002.19;10438426;28;20124;-79
2022/11/07 01:43:48;;;;;;;0.30;0.10;;;;;;;10.19;100.00;101006.31;10454390;28;20520;-79
2022/11/07 01:49:11;;;;;;;0.38;0.30;;;;;;;10.32;100.00;101018.72;10492936;28;20048;-79
2022/11/07 01:54:17;;;;;;;0.47;0.40;;;;;;;10.34;100.00;101011.91;10454836;28;20044;-77
2022/11/07 01:59:22;;;;;;;8.05;0.88;;;;;;;10.48;100.00;100995.16;10455328;28;20132;-79
2022/11/07 02:04:28;;;;;;;0.00;0.00;;;;;;;10.50;100.00;101007.22;10462014;28;20484;-79
2022/11/07 02:09:30;;;;;;;0.80;0.15;;;;;;;10.51;100.00;101003.81;10441260;28;20063;-79
2022/11/07 02:14:31;;;;;;;0.47;0.32;;;;;;;10.38;100.00;101006.06;10442063;28;20061;-79
2022/11/07 02:19:37;;;;;;;2.90;0.38;;;;;;;10.22;100.00;101006.41;10461330;28;20045;-79
2022/11/07 02:24:39;;;;;;;0.45;0.20;;;;;;;10.12;100.00;101021.59;10490846;28;20041;-80
2022/11/07 02:29:46;;;;;;;0.25;0.20;;;;;;;10.06;100.00;101021.41;10446537;28;20475;-79
2022/11/07 02:35:04;;;;;;;0.55;0.55;;;;;;;9.91;100.00;101036.38;10448748;28;20072;-79
2022/11/07 02:40:09;;;;;;;0.13;0.13;;;;;;;9.92;100.00;101039.00;10453978;28;20132;-80
2022/11/07 02:45:16;;;;;;;0.00;0.00;;;;;;;9.95;100.00;101031.38;10451872;28;20098;-80
2022/11/07 02:50:17;;;;;;;0.15;0.13;;;;;;;9.94;100.00;101034.78;10428915;28;20526;-79
2022/11/07 02:55:19;;;;;;;0.50;0.30;;;;;;;10.03;100.00;101052.19;10470781;28;20068;-79
2022/11/07 03:00:21;;;;;;;0.47;0.30;;;;;;;10.10;100.00;101051.56;10485480;28;20072;-79
2022/11/07 03:05:22;;;;;;;0.20;0.20;;;;;;;10.09;100.00;101054.94;10448668;28;20060;-79
2022/11/07 03:10:24;;;;;;;0.00;0.00;;;;;;;10.14;100.00;101061.13;10442980;28;20468;-80
2022/11/07 03:15:25;;;;;;;0.10;0.10;;;;;;;10.05;100.00;101058.28;10459125;28;20049;-78
2022/11/07 03:20:27;;;;;;;0.88;0.63;;;;;;;9.99;100.00;101063.25;10463815;28;20091;-79
2022/11/07 03:25:28;;;;;;;1.15;0.40;;;;;;;10.03;100.00;101072.78;10462477;28;20048;-80
2022/11/07 03:30:30;;;;;;;2.53;0.30;;;;;;;9.99;100.00;101070.97;10485123;28;20377;-79
2022/11/07 03:35:32;;;;;;;1.65;0.47;;;;;;;9.91;100.00;101070.69;10436950;28;20081;-80
2022/11/07 03:40:33;;;;;;;0.77;0.35;;;;;;;9.92;100.00;101069.03;10451189;28;20073;-79
2022/11/07 03:45:35;;;;;;;0.15;0.15;;;;;;;10.02;100.00;101085.63;10446732;28;20541;-79
2022/11/07 03:50:36;;;;;;;5.75;0.55;;;;;;;10.13;100.00;101077.41;10459361;28;20076;-79
2022/11/07 03:55:39;;;;;;;0.75;0.45;;;;;;;10.31;100.00;101078.78;10446613;28;20038;-79
2022/11/07 04:00:41;;;;;;;0.52;0.30;;;;;;;10.29;100.00;101075.28;10467932;28;20493;-79
2022/11/07 04:05:43;;;;;;;0.10;0.10;;;;;;;10.34;100.00;101080.59;10442348;28;20531;-80
2022/11/07 04:10:45;;;;;;;0.10;0.10;;;;;;;10.32;100.00;101065.94;10477798;28;20538;-80
2022/11/07 04:21:08;;;;;;;0.20;0.15;;;;;;;10.51;100.00;101084.53;10458194;28;20504;-79
2022/11/07 04:31:30;;;;;;;0.10;0.10;;;;;;;10.50;100.00;101074.19;10434793;28;20041;-79
2022/11/07 04:36:31;;;;;;;0.20;0.05;;;;;;;10.62;100.00;101077.13;10479223;28;20535;-79
2022/11/07 04:41:33;;;;;;;0.17;0.17;;;;;;;10.59;100.00;101069.31;10442963;28;20042;-79
2022/11/07 04:46:34;;;;;;;0.52;0.30;;;;;;;10.52;100.00;101077.69;10429911;28;20576;-79
2022/11/07 04:51:41;;;;;;;8.52;0.43;;;;;;;10.45;100.00;101079.22;10455161;28;20440;-79
2022/11/07 04:56:43;;;;;;;0.10;0.10;;;;;;;10.31;100.00;101078.78;10456994;28;20065;-80
2022/11/07 05:01:44;;;;;;;0.63;0.28;;;;;;;10.32;100.00;101070.22;10457033;28;20127;-79
2022/11/07 05:06:46;;;;;;;0.60;0.43;;;;;;;10.21;100.00;101079.34;10455145;28;20481;-80
2022/11/07 05:11:47;;;;;;;0.00;0.00;;;;;;;10.35;100.00;101075.47;10439685;28;20055;-78
2022/11/07 05:16:51;;;;;;;0.00;0.00;;;;;;;10.33;100.00;101077.13;10441788;28;20195;-79
2022/11/07 05:27:18;;;;;;;0.68;0.50;;;;;;;10.51;100.00;101070.81;10456270;28;20076;-79
2022/11/07 05:32:19;;;;;;;1.95;0.82;;;;;;;10.55;100.00;101062.31;10455593;28;20076;-80
2022/11/07 05:37:21;;;;;;;0.15;0.15;;;;;;;10.52;100.00;101059.66;10456132;28;20045;-80
2022/11/07 05:42:22;;;;;;;0.80;0.38;;;;;;;10.58;100.00;101063.28;10454553;28;20124;-80
2022/11/07 05:47:24;;;;;;;1.10;0.20;;;;;;;10.67;100.00;101065.25;10436242;28;20049;-80
2022/11/07 05:52:25;;;;;;;0.10;0.10;;;;;;;10.66;100.00;101065.19;10426538;28;20030;-79
2022/11/07 05:57:28;;;;;;;2.00;1.00;;;;;;;10.68;100.00;101067.00;10454541;28;20127;-79
2022/11/07 06:02:30;;;;;;;0.08;0.08;;;;;;;10.72;100.00;101075.69;10437572;28;20133;-79
2022/11/07 06:07:34;;;;;;;0.00;0.00;;;;;;;10.74;100.00;101063.72;10460150;28;20095;-79
2022/11/07 06:12:35;;;;;;;0.03;0.03;;;;;;;10.76;100.00;101062.91;10456423;28;20045;-79
2022/11/07 06:17:37;;;;;;;0.55;0.28;;;;;;;10.61;100.00;101058.22;10459890;28;20469;-80
2022/11/07 06:22:39;;;;;;;0.32;0.20;;;;;;;10.70;100.00;101060.16;10455262;28;20044;-78
2022/11/07 06:27:40;;;;;;;0.03;0.03;;;;;;;10.62;100.00;101059.06;10443510;28;20049;-79
2022/11/07 06:32:44;;;;;;;0.10;0.03;;;;;;;10.65;100.00;101060.91;10467910;28;20119;-78
2022/11/07 06:37:46;;;;;;;0.25;0.15;;;;;;;10.65;100.00;101061.75;10493780;28;20095;-79
2022/11/07 06:42:47;;;;;;;0.17;0.10;;;;;;;10.67;100.00;101059.22;10444494;28;20045;-79
2022/11/07 06:47:49;;;;;;;0.20;0.20;;;;;;;10.74;100.00;101062.03;10461833;28;20557;-80
2022/11/07 06:52:52;;;;;;;0.10;0.10;;;;;;;10.78;100.00;101050.94;10480006;28;20041;-78
2022/11/07 06:57:59;;;;;;;1.70;0.45;;;;;;;10.74;100.00;101054.28;10469386;28;20065;-79
2022/11/07 07:03:01;;;;;;;1.17;0.43;;;;;;;10.72;100.00;101065.41;10460393;28;20389;-79
2022/11/07 07:08:05;;;;;;;0.10;0.10;;;;;;;10.75;100.00;101076.66;10482407;28;20067;-78
2022/11/07 07:13:07;;;;;;;0.30;0.03;;;;;;;10.72;100.00;101089.44;10482960;28;20690;-78
2022/11/07 07:18:08;;;;;;;0.70;0.70;;;;;;;10.70;100.00;101093.66;10438436;28;20041;-78
2022/11/07 07:23:10;;;;;;;0.47;0.22;;;;;;;10.76;100.00;101099.00;10465360;28;20500;-79
2022/11/07 07:28:11;;;;;;;0.00;0.00;;;;;;;10.81;100.00;101096.56;10430255;28;20131;-78
2022/11/07 07:33:13;;;;;;;0.65;0.10;;;;;;;10.81;100.00;101106.00;10457262;28;20037;-78
2022/11/07 07:38:16;;;;;;;0.25;0.15;;;;;;;10.82;100.00;101095.72;10453096;28;20041;-79
2022/11/07 07:43:18;;;;;;;0.70;0.70;;;;;;;10.94;100.00;101108.09;10438371;28;20073;-79
2022/11/07 07:48:45;;;;;;;0.10;0.10;;;;;;;11.02;100.00;101110.88;10471199;28;20041;-77
2022/11/07 07:53:47;;;;;;;0.10;0.10;;;;;;;11.07;100.00;101109.31;10438346;28;20404;-78
2022/11/07 07:58:51;;;;;;;0.00;0.00;;;;;;;11.07;100.00;101110.16;10446215;28;20050;-79
2022/11/07 08:03:55;;;;;;;1.50;0.25;;;;;;;11.13;100.00;101114.63;10428925;28;20075;-79
2022/11/07 08:09:03;;;;;;;0.22;0.22;;;;;;;11.27;100.00;101118.44;10448039;28;20049;-76
2022/11/07 08:14:05;;;;;;;0.30;0.20;;;;;;;11.32;100.00;101115.13;10435931;28;20149;-78
2022/11/07 08:19:06;;;;;;;0.47;0.35;;;;;;;11.37;100.00;101092.88;10438888;28;20041;-79
2022/11/07 08:24:08;;;;;;;0.20;0.20;;;;;;;11.46;100.00;101112.88;10447098;28;20049;-79
2022/11/07 08:29:10;;;;;;;0.00;0.00;;;;;;;11.71;100.00;101099.78;10446177;28;20539;-79
2022/11/07 08:34:12;;;;;;;0.22;0.05;;;;;;;11.71;100.00;101099.78;10444849;28;20159;-79
2022/11/07 08:39:18;;;;;;;0.08;0.08;;;;;;;12.01;100.00;101098.78;10438486;28;20559;-79
2022/11/07 08:44:19;;;;;;;0.10;0.10;;;;;;;12.00;100.00;101084.13;10447461;28;20137;-80
2022/11/07 08:49:21;;;;;;;2.40;0.63;;;;;;;12.18;100.00;101081.06;10445942;28;20041;-78
2022/11/07 08:54:24;;;;;;;1.45;0.28;;;;;;;12.44;100.00;101072.16;10446154;28;20120;-79
2022/11/07 08:59:28;;;;;;;0.40;0.40;;;;;;;12.46;100.00;101073.06;10423961;28;20052;-78
2022/11/07 09:04:29;;;;;;;0.00;0.00;;;;;;;12.81;100.00;101067.72;10444597;28;20041;-80
2022/11/07 09:09:31;;;;;;;0.10;0.10;;;;;;;12.79;100.00;101087.47;10447566;28;20037;-80
2022/11/07 09:14:32;;;;;;;0.00;0.00;;;;;;;12.64;100.00;101085.47;10453898;28;20049;-79
2022/11/07 09:19:34;;;;;;;0.13;0.10;;;;;;;12.57;100.00;101087.06;10420377;28;20080;-78
2022/11/07 09:24:35;;;;;;;0.00;0.00;;;;;;;12.53;100.00;101099.03;10445863;28;20132;-79
2022/11/07 09:29:37;;;;;;;0.30;0.30;;;;;;;12.70;100.00;101106.28;10459854;28;20496;-79
2022/11/07 09:34:38;;;;;;;0.17;0.08;;;;;;;12.69;100.00;101110.59;10444022;28;20057;-77
2022/11/07 09:39:40;;;;;;;0.00;0.00;;;;;;;12.75;100.00;101124.47;10448567;28;20051;-78
2022/11/07 09:44:57;;;;;;;0.28;0.20;;;;;;;12.91;100.00;101136.88;10468110;28;20076;-79
2022/11/07 09:50:04;;;;;;;0.00;0.00;;;;;;;12.60;100.00;101136.25;10425767;28;20072;-79
2022/11/07 09:55:41;;;;;;;2.03;0.20;;;;;;;12.68;100.00;101154.47;10445685;28;20045;-79
2022/11/07 10:00:43;;;;;;;0.28;0.00;;;;;;;12.69;100.00;101154.53;10461984;28;20417;-78
2022/11/07 10:06:04;;;;;;;0.00;0.00;;;;;;;12.82;100.00;101147.88;10463822;28;20049;-78
2022/11/07 10:11:30;;;;;;;0.28;0.17;;;;;;;12.80;100.00;101148.69;10451045;28;20049;-78
2022/11/07 10:17:01;;;;;;;0.20;0.20;;;;;;;13.00;100.00;101155.16;10439079;28;20140;-79
2022/11/07 10:22:11;;;;;;;0.30;0.22;;;;;;;13.01;100.00;101143.09;10452517;28;20140;-78
2022/11/07 10:27:13;;;;;;;0.00;0.00;;;;;;;13.04;100.00;101142.28;10461427;28;20136;-79
2022/11/07 10:32:22;;;;;;;5.10;0.20;;;;;;;13.10;100.00;101142.41;10488216;28;20036;-78
2022/11/07 10:37:24;;;;;;;0.00;0.00;;;;;;;13.23;100.00;101139.19;10453475;28;20077;-79
2022/11/07 10:42:29;;;;;;;0.15;0.15;;;;;;;13.20;100.00;101140.84;10456657;28;20551;-78
2022/11/07 10:47:31;;;;;;;1.20;0.30;;;;;;;13.01;100.00;101151.72;10460504;28;20492;-79
2022/11/07 10:52:33;;;;;;;0.55;0.30;;;;;;;13.16;100.00;101155.44;10453885;28;20120;-79
2022/11/07 10:57:35;;;;;;;0.20;0.10;;;;;;;13.24;100.00;101155.59;10443133;28;20067;-78
2022/11/07 11:03:13;;;;;;;1.30;0.28;;;;;;;13.22;100.00;101147.78;10456016;28;20072;-78
2022/11/07 11:08:18;;;;;;;0.70;0.10;;;;;;;13.31;100.00;101136.75;10443023;28;20095;-80
2022/11/07 11:13:31;;;;;;;0.17;0.10;;;;;;;13.70;100.00;101129.69;10445120;28;20086;-79
2022/11/07 11:18:32;;;;;;;1.50;1.20;;;;;;;13.76;100.00;101111.66;10459838;28;20049;-79
2022/11/07 11:23:36;;;;;;;0.80;0.32;;;;;;;13.59;100.00;101106.22;10436385;28;20087;-78
2022/11/07 11:28:45;;;;;;;0.03;0.00;;;;;;;13.64;100.00;101105.47;10454676;28;20072;-79
2022/11/07 11:33:52;;;;;;;0.00;0.00;;;;;;;13.51;100.00;101098.34;10451692;28;20086;-78
2022/11/07 11:38:55;;;;;;;0.38;0.38;;;;;;;13.58;100.00;101115.72;10457297;28;20073;-78
2022/11/07 11:44:05;;;;;;;4.90;0.57;;;;;;;13.60;100.00;101108.81;10439119;28;20091;-78
2022/11/07 11:49:23;;;;;;;0.20;0.20;;;;;;;13.51;100.00;101108.69;10450278;28;20556;-77
2022/11/07 11:54:25;;;;;;;0.52;0.43;;;;;;;13.33;100.00;101135.94;10420626;28;20045;-79
2022/11/07 11:59:27;;;;;;;0.77;0.30;;;;;;;13.21;100.00;101140.91;10434605;28;20049;-78
2022/11/07 12:04:54;;;;;;;0.55;0.20;;;;;;;13.25;100.00;101155.63;10443234;28;20159;-79
2022/11/07 12:10:02;;;;;;;0.20;0.08;;;;;;;13.33;100.00;101166.09;10445699;28;20120;-78
2022/11/07 12:15:43;;;;;;;0.13;0.05;;;;;;;13.32;100.00;101148.88;10455251;28;20037;-79
2022/11/07 12:21:13;;;;;;;0.00;0.00;;;;;;;13.47;100.00;101148.28;10444619;28;20046;-78
2022/11/07 12:26:37;;;;;;;0.03;0.03;;;;;;;13.52;100.00;101136.28;10457996;28;20073;-78
2022/11/07 12:31:48;;;;;;;1.20;0.25;;;;;;;13.65;100.00;101119.25;10455549;28;20081;-78
2022/11/07 12:36:56;;;;;;;34.17;0.85;;;;;;;13.70;100.00;101120.19;10436731;28;20044;-78
2022/11/07 12:42:07;;;;;;;0.52;0.47;;;;;;;13.59;100.00;101107.06;10437865;28;20137;-79
2022/11/07 12:48:05;;;;;;;0.10;0.10;;;;;;;13.56;100.00;101107.03;10432974;28;20483;-79
2022/11/07 12:53:27;;;;;;;0.00;0.00;;;;;;;13.64;100.00;101100.28;10316255;28;20046;-78
2022/11/07 12:58:34;;;;;;;0.10;0.00;;;;;;;13.75;100.00;101087.50;10475080;28;20522;-79
2022/11/07 13:03:57;;;;;;;0.30;0.08;;;;;;;13.81;100.00;101084.16;10440366;28;20133;-79
2022/11/07 13:09:17;;;;;;;0.00;0.00;;;;;;;13.82;100.00;101077.22;10436915;28;20087;-78
2022/11/07 13:14:35;;;;;;;0.32;0.32;;;;;;;13.76;100.00;101075.41;10454703;28;20045;-79
2022/11/07 13:19:40;;;;;;;0.10;0.10;;;;;;;13.76;100.00;101078.00;10427881;28;20046;-78
2022/11/07 13:25:09;;;;;;;0.10;0.10;;;;;;;13.79;100.00;101072.88;10436470;28;20124;-78
2022/11/07 13:30:55;;;;;;;0.90;0.77;;;;;;;13.91;100.00;101056.66;10433421;28;20044;-78
2022/11/07 13:36:10;;;;;;;0.00;0.00;;;;;;;13.92;100.00;101059.25;10431887;28;20088;-78
2022/11/07 13:42:03;;;;;;;2.20;0.38;;;;;;;14.00;100.00;101050.72;10427193;28;20053;-78
2022/11/07 13:47:15;;;;;;;0.43;0.30;;;;;;;14.01;100.00;101037.78;10483799;28;20052;-78
2022/11/07 13:52:40;;;;;;;0.20;0.20;;;;;;;14.09;100.00;101030.16;10465506;28;20044;-78
2022/11/07 13:57:52;;;;;;;2.53;0.77;;;;;;;14.03;100.00;101036.09;10459067;28;20041;-77
2022/11/07 14:02:58;;;;;;;0.17;0.10;;;;;;;14.03;100.00;101035.25;10429758;28;20128;-79
2022/11/07 14:08:07;;;;;;;0.20;0.20;;;;;;;13.87;100.00;101040.22;10428783;28;20123;-78
2022/11/07 14:13:18;;;;;;;0.25;0.20;;;;;;;13.87;100.00;101042.78;10450849;28;20400;-77
2022/11/07 14:18:30;;;;;;;0.20;0.10;;;;;;;13.78;100.00;101040.06;10462948;28;20044;-78
2022/11/07 14:23:32;;;;;;;0.00;0.00;;;;;;;13.77;100.00;101044.38;10455028;28;20133;-78
2022/11/07 14:28:36;;;;;;;0.25;0.25;;;;;;;13.77;100.00;101043.50;10437392;28;20080;-78
2022/11/07 14:34:17;;;;;;;0.70;0.47;;;;;;;13.72;100.00;101045.16;10433104;28;20164;-79
2022/11/07 14:39:21;;;;;;;0.05;0.05;;;;;;;13.68;100.00;101057.19;10443908;28;20045;-78
2022/11/07 14:44:28;;;;;;;0.10;0.10;;;;;;;13.63;100.00;101064.88;10428306;28;20065;-79
2022/11/07 14:49:51;;;;;;;0.20;0.10;;;;;;;13.55;100.00;101078.56;10453250;28;20519;-79
2022/11/07 14:55:02;;;;;;;1.75;1.25;;;;;;;13.54;100.00;101077.66;10460407;28;20555;-78
2022/11/07 15:00:11;;;;;;;0.30;0.20;;;;;;;13.51;100.00;101095.75;10460372;28;20072;-77
2022/11/07 15:05:37;;;;;;;5.32;0.28;;;;;;;13.50;100.00;101091.41;10455102;28;20069;-78
2022/11/07 15:17:03;;;;;;;0.00;0.00;;;;;;;13.50;100.00;101086.25;10435914;28;20481;-77
2022/11/07 15:22:23;;;;;;;0.00;0.00;;;;;;;13.43;100.00;101090.44;10459805;28;20049;-79
2022/11/07 15:27:35;;;;;;;0.10;0.10;;;;;;;13.52;100.00;101089.69;10460208;28;20071;-78
2022/11/07 15:33:08;;;;;;;1.80;0.40;;;;;;;13.46;100.00;101099.97;10458756;28;20068;-77
2022/11/07 15:38:36;;;;;;;0.08;0.00;;;;;;;13.49;100.00;101089.66;10460993;28;20642;-78
2022/11/07 15:43:37;;;;;;;0.70;0.30;;;;;;;13.58;100.00;101097.59;10459406;28;20049;-78
2022/11/07 15:48:40;;;;;;;0.00;0.00;;;;;;;13.52;100.00;101097.47;10458897;28;20045;-79
2022/11/07 15:53:42;;;;;;;0.35;0.20;;;;;;;13.42;100.00;101121.47;10459419;28;20049;-77
2022/11/07 15:58:43;;;;;;;0.77;0.68;;;;;;;13.33;100.00;101141.13;10404090;28;20045;-78
2022/11/07 16:03:45;;;;;;;0.00;0.00;;;;;;;13.39;100.00;101139.50;10458990;28;20045;-78
2022/11/07 16:08:46;;;;;;;0.20;0.10;;;;;;;13.41;100.00;101132.66;10500175;28;20059;-78
2022/11/07 16:13:48;;;;;;;3.25;0.38;;;;;;;13.41;100.00;101137.84;10476758;28;20507;-77
2022/11/07 16:18:52;;;;;;;0.00;0.00;;;;;;;13.39;100.00;101135.22;10441925;28;20566;-78
2022/11/07 16:24:51;;;;;;;0.35;0.35;;;;;;;13.44;100.00;101138.75;10429542;28;20041;-78
2022/11/07 16:29:52;;;;;;;0.90;0.60;;;;;;;13.41;100.00;101137.84;10435341;28;20576;-77
2022/11/07 16:34:54;;;;;;;4.78;0.90;;;;;;;13.34;100.00;101136.81;10458641;28;20043;-78
2022/11/07 16:40:03;;;;;;;0.98;0.30;;;;;;;13.30;100.00;101143.63;10430703;28;20080;-77
2022/11/07 16:45:24;;;;;;;0.10;0.10;;;;;;;13.33;100.00;101151.47;10432856;28;20477;-77
2022/11/07 16:50:26;;;;;;;1.20;0.55;;;;;;;13.41;100.00;101158.53;10458468;28;20483;-78
2022/11/07 16:55:30;;;;;;;1.65;1.55;;;;;;;13.41;100.00;101153.34;10458026;28;20076;-77
2022/11/07 17:01:31;;;;;;;0.00;0.00;;;;;;;13.28;100.00;101168.63;10442472;28;20280;-76
2022/11/07 17:06:34;;;;;;;0.43;0.28;;;;;;;13.26;100.00;101170.31;10417550;28;20049;-78
2022/11/07 17:11:37;;;;;;;0.55;0.30;;;;;;;13.20;100.00;101175.38;10494648;28;20455;-80
2022/11/07 17:16:43;;;;;;;0.47;0.10;;;;;;;13.29;100.00;101175.53;10466895;28;20067;-77
2022/11/07 17:21:48;;;;;;;0.22;0.15;;;;;;;13.29;100.00;101179.84;10516472;28;20055;-78
2022/11/07 17:26:49;;;;;;;0.25;0.20;;;;;;;13.27;100.00;101182.41;10492422;28;20045;-78
2022/11/07 17:31:54;;;;;;;0.00;0.00;;;;;;;13.28;100.00;101178.97;10445171;28;20076;-78
2022/11/07 17:36:58;;;;;;;0.20;0.20;;;;;;;13.29;100.00;101182.44;10414629;28;20509;-78
2022/11/07 17:41:59;;;;;;;0.08;0.08;;;;;;;13.27;100.00;101182.41;10416291;28;20401;-77
2022/11/07 17:47:01;;;;;;;0.00;0.00;;;;;;;13.28;100.00;101178.97;10446270;28;20653;-78
2022/11/07 17:52:03;;;;;;;0.10;0.10;;;;;;;13.39;100.00;101170.56;10468570;28;20045;-78
2022/11/07 17:57:07;;;;;;;4.57;0.50;;;;;;;13.27;100.00;101174.66;10455258;28;20047;-78
2022/11/07 18:02:17;;;;;;;0.00;0.00;;;;;;;13.36;100.00;101170.50;10455261;28;20084;-79
2022/11/07 18:07:19;;;;;;;;;;;;;;;13.39;100.00;101160.22;10455345;28;20045;-78
2022/11/07 18:12:20;;;;;;;0.00;0.00;;;;;;;13.33;100.00;101160.94;10456363;28;20371;-78
2022/11/07 18:18:26;;;;;;;0.20;0.15;;;;;;;13.36;100.00;101158.41;10473976;28;20124;-77
2022/11/07 18:24:19;;;;;;;0.00;0.00;;;;;;;13.27;100.00;101156.53;10469245;28;20037;-78
2022/11/07 18:29:51;;;;;;;0.00;0.00;;;;;;;13.39;100.00;101144.69;10429253;28;20073;-79
2022/11/07 18:35:27;;;;;;;0.05;0.05;;;;;;;13.41;100.00;101148.19;10449615;28;20467;-77
2022/11/07 18:41:26;;;;;;;0.32;0.32;;;;;;;13.40;100.00;101141.25;10462358;28;20052;-79
2022/11/07 18:53:53;;;;;;;2.20;0.75;;;;;;;13.55;100.00;101135.50;10422080;28;20393;-79
2022/11/07 18:58:55;;;;;;;0.20;0.17;;;;;;;13.49;100.00;101138.84;10451063;28;20049;-77
2022/11/07 19:04:00;;;;;;;0.10;0.10;;;;;;;13.46;100.00;101131.00;10460331;28;20504;-77
2022/11/07 19:09:02;;;;;;;0.03;0.00;;;;;;;13.46;100.00;101139.66;10424857;28;20588;-77
2022/11/07 19:14:03;;;;;;;0.25;0.15;;;;;;;13.32;100.00;101154.91;10435695;28;20072;-80
2022/11/07 19:19:05;;;;;;;0.00;0.00;;;;;;;13.27;100.00;101145.28;10450859;28;20073;-77
2022/11/07 19:24:07;;;;;;;0.00;0.00;;;;;;;13.15;100.00;101166.63;10426664;28;20053;-77
2022/11/07 19:29:08;;;;;;;0.15;0.15;;;;;;;13.08;100.00;101170.81;10461616;28;20106;-77
2022/11/07 19:34:10;;;;;;;4.85;1.33;;;;;;;12.99;100.00;101181.84;10461493;28;20484;-77
2022/11/07 19:39:11;;;;;;;0.75;0.28;;;;;;;12.89;100.00;101190.28;10455263;28;20056;-76
2022/11/07 19:44:13;;;;;;;0.00;0.00;;;;;;;12.69;100.00;101208.81;10452156;28;20128;-76
2022/11/07 19:49:15;;;;;;;1.13;0.32;;;;;;;12.64;100.00;101210.41;10456249;28;20057;-76
2022/11/07 19:54:17;;;;;;;0.03;0.03;;;;;;;12.68;100.00;101209.66;10420654;28;20121;-76
2022/11/07 19:59:18;;;;;;;0.00;0.00;;;;;;;12.63;100.00;101219.00;10418254;28;20501;-76
2022/11/07 20:04:20;;;;;;;0.05;0.00;;;;;;;12.52;100.00;101226.50;10417988;28;20079;-77
2022/11/07 20:09:22;;;;;;;0.10;0.10;;;;;;;12.72;100.00;101240.72;10443465;28;20136;-76
2022/11/07 20:14:23;;;;;;;0.10;0.10;;;;;;;12.76;100.00;101225.31;10458714;28;20070;-77
2022/11/07 20:19:25;;;;;;;2.00;0.00;;;;;;;12.65;100.00;101226.81;10459722;28;20041;-75
2022/11/07 20:24:27;;;;;;;0.75;0.25;;;;;;;12.69;100.00;101220.84;10459598;28;20103;-77
2022/11/07 20:29:28;;;;;;;0.95;0.43;;;;;;;12.84;100.00;101228.09;10459865;28;20087;-77
2022/11/07 20:34:30;;;;;;;3.90;0.55;;;;;;;12.72;100.00;101212.28;10461345;28;20041;-77
2022/11/07 20:39:31;;;;;;;0.38;0.15;;;;;;;12.66;100.00;101220.78;10429552;28;20520;-76
2022/11/07 20:45:27;;;;;;;0.43;0.43;;;;;;;12.59;100.00;101235.28;10464008;28;20422;-77
2022/11/07 20:50:30;;;;;;;0.20;0.20;;;;;;;12.59;100.00;101245.63;10455390;28;20084;-76
2022/11/07 20:55:40;;;;;;;0.28;0.13;;;;;;;12.56;100.00;101249.84;10446960;28;20068;-77
2022/11/07 21:00:42;;;;;;;0.10;0.10;;;;;;;12.53;100.00;101238.59;10457314;28;20073;-77
2022/11/07 21:05:43;;;;;;;0.10;0.10;;;;;;;12.47;100.00;101255.69;10464508;28;20503;-77
2022/11/07 21:10:48;;;;;;;1.30;0.98;;;;;;;12.58;100.00;101250.78;10450204;28;20111;-78
2022/11/07 21:15:50;;;;;;;3.75;0.55;;;;;;;12.63;100.00;101250.03;10457420;28;20064;-75
2022/11/07 21:20:52;;;;;;;0.20;0.10;;;;;;;12.59;100.00;101261.13;10445740;28;20049;-76
2022/11/07 21:25:53;;;;;;;0.10;0.00;;;;;;;12.54;100.00;101257.59;10457232;28;20102;-77
2022/11/07 21:31:03;;;;;;;0.10;0.10;;;;;;;12.48;100.00;101268.63;10438207;28;20072;-77
2022/11/07 21:36:13;;;;;;;;;;;;;;;12.35;100.00;101266.59;10416374;28;20099;-76
2022/11/07 21:41:15;;;;;;;0.00;0.00;;;;;;;12.33;100.00;101271.72;10439040;28;19948;-76
2022/11/07 21:46:20;;;;;;;0.75;0.75;;;;;;;12.18;100.00;101276.50;10456522;28;20037;-77
2022/11/07 21:51:27;;;;;;;1.55;1.45;;;;;;;12.13;100.00;101279.00;10455445;28;20128;-75
2022/11/07 21:56:35;;;;;;;0.10;0.10;;;;;;;11.99;100.00;101277.75;10455206;28;20040;-76
2022/11/07 22:01:38;;;;;;;1.40;0.95;;;;;;;11.97;100.00;101294.91;10439573;28;20408;-78
2022/11/07 22:06:42;;;;;;;0.22;0.20;;;;;;;11.98;100.00;101284.63;10469990;28;20123;-76
2022/11/07 22:11:44;;;;;;;0.00;0.00;;;;;;;11.91;100.00;101283.53;10469826;28;20056;-76
2022/11/07 22:16:47;;;;;;;0.28;0.28;;;;;;;12.01;100.00;101273.50;10468525;28;20088;-77
2022/11/07 22:21:49;;;;;;;0.77;0.47;;;;;;;12.00;100.00;101267.47;10469752;28;20041;-77
2022/11/07 22:26:52;;;;;;;1.00;1.00;;;;;;;11.93;100.00;101265.53;10468403;28;20140;-76
2022/11/07 22:31:54;;;;;;;0.10;0.10;;;;;;;11.86;100.00;101263.63;10469526;28;20041;-76
2022/11/07 22:36:55;;;;;;;0.00;0.00;;;;;;;11.82;100.00;101264.34;10469758;28;20492;-76
2022/11/07 22:41:57;;;;;;;0.35;0.35;;;;;;;11.95;100.00;101263.84;10469374;28;20463;-77
2022/11/07 22:46:58;;;;;;;2.58;0.43;;;;;;;11.99;100.00;101255.38;10469629;28;20043;-77
2022/11/07 22:52:00;;;;;;;11.27;0.28;;;;;;;12.04;100.00;101248.63;10455112;28;20049;-76
2022/11/07 22:57:02;;;;;;;0.10;0.10;;;;;;;12.14;100.00;101243.69;10467894;28;20076;-76
2022/11/07 23:02:03;;;;;;;0.00;0.00;;;;;;;12.09;100.00;101246.16;10468775;28;20048;-77
2022/11/07 23:07:05;;;;;;;1.83;1.02;;;;;;;12.24;100.00;101225.00;10468968;28;20044;-76
2022/11/07 23:12:06;;;;;;;0.00;0.00;;;;;;;12.22;100.00;101227.53;10464875;28;20099;-77
2022/11/07 23:17:08;;;;;;;0.00;0.00;;;;;;;12.22;100.00;101216.34;10460529;28;20544;-76
2022/11/07 23:22:09;;;;;;;0.05;0.05;;;;;;;11.95;100.00;101224.25;10462087;28;20080;-78
2022/11/07 23:27:11;;;;;;;0.20;0.20;;;;;;;12.05;100.00;101224.53;10461268;28;20037;-80
2022/11/07 23:32:13;;;;;;;0.20;0.20;;;;;;;11.77;100.00;101232.38;10462041;28;20103;-77
2022/11/07 23:37:16;;;;;;;0.55;0.30;;;;;;;11.67;100.00;101237.28;10473987;28;20091;-77
2022/11/07 23:42:18;;;;;;;0.30;0.20;;;;;;;11.40;100.00;101240.00;10460397;28;20083;-77
2022/11/07 23:52:39;;;;;;;0.32;0.22;;;;;;;11.31;100.00;101263.84;10462046;28;20397;-79
